createdAt,value
2024-02-24T00:01:42.486Z,7.10
2024-02-24T00:04:14.833Z,8.08
2024-02-24T00:06:48.668Z,7.12
2024-02-24T00:09:21.599Z,8.08
2024-02-24T00:11:54.776Z,8.38
2024-02-24T00:14:28.057Z,8.10
2024-02-24T00:17:00.718Z,5.92
2024-02-24T00:19:33.461Z,7.65
2024-02-24T00:22:06.116Z,6.97
2024-02-24T00:24:38.850Z,8.35
2024-02-24T00:27:11.742Z,7.97
2024-02-24T00:29:44.954Z,6.10
2024-02-24T00:32:18.205Z,7.33
2024-02-24T00:34:50.727Z,7.37
2024-02-24T00:37:23.264Z,5.62
2024-02-24T00:39:56.795Z,7.72
2024-02-24T00:42:29.350Z,7.15
2024-02-24T00:45:01.745Z,6.62
2024-02-24T00:47:34.446Z,7.03
2024-02-24T00:50:07.195Z,8.35
2024-02-24T00:52:39.676Z,8.55
2024-02-24T00:55:12.273Z,8.20
2024-02-24T00:57:44.354Z,7.90
2024-02-24T01:00:17.344Z,7.83
2024-02-24T01:02:49.928Z,8.08
2024-02-24T01:05:22.292Z,8.18
2024-02-24T01:07:56.350Z,8.58
2024-02-24T01:10:29.051Z,8.35
2024-02-24T01:13:02.389Z,8.28
2024-02-24T01:15:35.568Z,7.37
2024-02-24T01:18:07.923Z,7.72
2024-02-24T01:20:40.346Z,8.23
2024-02-24T01:23:12.600Z,7.78
2024-02-24T01:25:47.071Z,8.43
2024-02-24T01:28:19.913Z,7.60
2024-02-24T01:30:52.532Z,8.65
2024-02-24T01:33:25.051Z,8.85
2024-02-24T01:35:57.815Z,8.68
2024-02-24T01:38:30.286Z,8.73
2024-02-24T01:41:02.800Z,8.78
2024-02-24T01:43:36.707Z,4.80
2024-02-24T01:46:12.084Z,7.95
2024-02-24T01:48:45.087Z,9.45
2024-02-24T01:51:18.333Z,8.23
2024-02-24T01:53:51.190Z,6.87
2024-02-24T01:56:26.995Z,9.10
2024-02-24T01:58:59.236Z,7.92
2024-02-24T02:01:31.986Z,8.98
2024-02-24T02:04:04.979Z,8.25
2024-02-24T02:06:38.429Z,9.23
2024-02-24T02:09:10.722Z,8.35
2024-02-24T02:11:51.725Z,9.33
2024-02-24T02:14:17.617Z,9.20
2024-02-24T02:16:50.771Z,8.53
2024-02-24T02:19:23.897Z,8.95
2024-02-24T02:21:59.510Z,8.78
2024-02-24T02:24:32.351Z,8.88
2024-02-24T02:27:06.972Z,8.50
2024-02-24T02:29:40.423Z,6.53
2024-02-24T02:32:12.896Z,9.48
2024-02-24T02:34:45.112Z,9.15
2024-02-24T02:37:17.399Z,8.95
2024-02-24T02:39:50.393Z,9.63
2024-02-24T02:42:23.020Z,9.85
2024-02-24T02:44:55.436Z,8.88
2024-02-24T02:47:28.203Z,8.65
2024-02-24T02:50:01.774Z,8.78
2024-02-24T02:52:34.250Z,10.35
2024-02-24T02:55:07.152Z,8.80
2024-02-24T02:57:39.840Z,8.88
2024-02-24T03:00:13.054Z,9.08
2024-02-24T03:02:46.014Z,10.35
2024-02-24T03:05:18.783Z,8.05
2024-02-24T03:07:50.941Z,8.95
2024-02-24T03:10:23.313Z,9.23
2024-02-24T03:12:55.836Z,8.95
2024-02-24T03:15:28.639Z,8.58
2024-02-24T03:18:01.316Z,8.95
2024-02-24T03:20:34.182Z,8.83
2024-02-24T03:23:07.876Z,8.13
2024-02-24T03:25:40.920Z,8.90
2024-02-24T03:28:13.552Z,9.23
2024-02-24T03:30:46.381Z,8.28
2024-02-24T03:33:19.532Z,8.73
2024-02-24T03:35:52.285Z,8.93
2024-02-24T03:38:24.998Z,8.35
2024-02-24T03:40:57.160Z,8.23
2024-02-24T03:43:29.480Z,8.80
2024-02-24T03:46:02.463Z,9.50
2024-02-24T03:48:35.588Z,8.85
2024-02-24T03:51:07.840Z,8.25
2024-02-24T03:53:40.086Z,8.65
2024-02-24T03:56:12.699Z,8.90
2024-02-24T03:58:45.696Z,9.78
2024-02-24T04:01:18.504Z,9.30
2024-02-24T04:03:52.833Z,8.67
2024-02-24T04:06:25.582Z,7.45
2024-02-24T04:08:57.834Z,9.60
2024-02-24T04:11:30.528Z,9.33
2024-02-24T04:14:03.103Z,8.90
2024-02-24T04:16:35.657Z,9.25
2024-02-24T04:19:08.361Z,8.10
2024-02-24T04:21:41.501Z,9.18
2024-02-24T04:24:14.295Z,9.03
2024-02-24T04:26:46.834Z,9.23
2024-02-24T04:29:19.091Z,7.83
2024-02-24T04:31:52.005Z,9.70
2024-02-24T04:34:25.121Z,9.48
2024-02-24T04:36:57.605Z,9.10
2024-02-24T04:39:30.496Z,8.05
2024-02-24T04:42:04.482Z,9.48
2024-02-24T04:44:37.580Z,9.15
2024-02-24T04:47:09.948Z,8.23
2024-02-24T04:49:43.009Z,9.55
2024-02-24T04:52:16.112Z,9.08
2024-02-24T04:54:48.498Z,8.83
2024-02-24T04:57:20.896Z,9.35
2024-02-24T04:59:53.747Z,9.98
2024-02-24T05:02:26.361Z,10.08
2024-02-24T05:04:59.083Z,8.38
2024-02-24T05:07:32.862Z,10.30
2024-02-24T05:10:22.838Z,9.80
2024-02-24T05:12:56.493Z,8.98
2024-02-24T05:15:28.900Z,9.98
2024-02-24T05:18:01.353Z,9.98
2024-02-24T05:20:34.676Z,9.97
2024-02-24T05:23:08.494Z,9.98
2024-02-24T05:25:41.493Z,10.25
2024-02-24T05:28:14.205Z,9.28
2024-02-24T05:30:48.923Z,10.00
2024-02-24T05:33:22.755Z,9.88
2024-02-24T05:35:56.150Z,9.28
2024-02-24T05:38:29.907Z,9.65
2024-02-24T05:41:03.408Z,8.93
2024-02-24T05:43:37.384Z,9.90
2024-02-24T05:46:10.746Z,9.85
2024-02-24T05:49:01.116Z,9.20
2024-02-24T05:51:34.062Z,10.60
2024-02-24T05:54:07.438Z,7.78
2024-02-24T05:56:41.852Z,9.50
2024-02-24T05:59:15.802Z,10.40
2024-02-24T06:01:48.709Z,11.35
2024-02-24T06:04:21.261Z,10.82
2024-02-24T06:06:53.677Z,10.60
2024-02-24T06:09:26.955Z,10.45
2024-02-24T06:11:59.682Z,9.70
2024-02-24T06:14:32.869Z,9.78
2024-02-24T06:17:05.283Z,8.13
2024-02-24T06:19:39.452Z,10.80
2024-02-24T06:22:12.641Z,16.02
2024-02-24T06:24:45.631Z,10.25
2024-02-24T06:27:18.263Z,11.35
2024-02-24T06:29:51.090Z,10.45
2024-02-24T06:32:24.067Z,11.63
2024-02-24T06:34:57.023Z,11.33
2024-02-24T06:37:29.416Z,9.23
2024-02-24T06:40:02.343Z,9.70
2024-02-24T06:42:34.782Z,11.08
2024-02-24T06:45:08.620Z,10.25
2024-02-24T06:47:41.672Z,11.08
2024-02-24T06:50:14.314Z,10.93
2024-02-24T06:52:47.344Z,10.15
2024-02-24T06:55:20.480Z,10.00
2024-02-24T06:57:53.458Z,11.25
2024-02-24T07:00:26.890Z,10.60
2024-02-24T07:03:00.344Z,11.05
2024-02-24T07:05:33.770Z,10.98
2024-02-24T07:08:07.273Z,9.95
2024-02-24T07:10:40.534Z,10.93
2024-02-24T07:13:12.971Z,10.55
2024-02-24T07:15:45.528Z,10.63
2024-02-24T07:18:18.685Z,10.30
2024-02-24T07:20:52.388Z,11.38
2024-02-24T07:23:25.251Z,7.90
2024-02-24T07:25:59.163Z,12.18
2024-02-24T07:28:32.656Z,10.13
2024-02-24T07:31:06.419Z,11.30
2024-02-24T07:33:39.759Z,9.07
2024-02-24T07:36:13.648Z,10.70
2024-02-24T07:38:46.607Z,9.58
2024-02-24T07:41:20.106Z,10.68
2024-02-24T07:43:53.732Z,8.18
2024-02-24T07:46:31.514Z,10.35
2024-02-24T07:49:05.252Z,11.50
2024-02-24T07:51:40.705Z,10.75
2024-02-24T07:54:14.328Z,9.88
2024-02-24T07:56:47.184Z,10.08
2024-02-24T07:59:19.731Z,11.40
2024-02-24T08:01:53.161Z,10.65
2024-02-24T08:04:25.684Z,10.03
2024-02-24T08:06:58.082Z,10.35
2024-02-24T08:09:31.651Z,11.68
2024-02-24T08:12:04.643Z,10.30
2024-02-24T08:14:40.150Z,8.08
2024-02-24T08:17:13.635Z,10.95
2024-02-24T08:19:46.782Z,10.35
2024-02-24T08:22:19.707Z,9.48
2024-02-24T08:25:10.995Z,11.30
2024-02-24T08:27:43.462Z,10.78
2024-02-24T08:30:16.971Z,10.48
2024-02-24T08:32:51.315Z,11.28
2024-02-24T08:35:25.141Z,8.13
2024-02-24T08:37:57.611Z,10.18
2024-02-24T08:40:30.158Z,9.55
2024-02-24T08:43:02.795Z,11.38
2024-02-24T08:45:35.619Z,10.90
2024-02-24T08:48:09.366Z,10.40
2024-02-24T08:50:44.046Z,9.15
2024-02-24T08:53:17.517Z,8.43
2024-02-24T08:55:50.994Z,9.98
2024-02-24T08:58:23.436Z,9.33
2024-02-24T09:00:57.810Z,10.25
2024-02-24T09:03:30.553Z,11.28
2024-02-24T09:06:03.470Z,10.85
2024-02-24T09:08:36.473Z,10.98
2024-02-24T09:11:09.848Z,9.65
2024-02-24T09:13:44.570Z,16.03
2024-02-24T09:16:19.143Z,10.70
2024-02-24T09:18:54.915Z,9.23
2024-02-24T09:21:30.098Z,10.98
2024-02-24T09:24:04.590Z,10.25
2024-02-24T09:26:38.443Z,11.18
2024-02-24T09:29:12.412Z,13.73
2024-02-24T09:31:45.811Z,10.58
2024-02-24T09:34:20.839Z,10.07
2024-02-24T09:36:55.526Z,10.03
2024-02-24T09:39:28.596Z,9.58
2024-02-24T09:42:02.425Z,9.38
2024-02-24T09:44:35.087Z,9.90
2024-02-24T09:47:10.698Z,10.55
2024-02-24T09:49:44.655Z,11.63
2024-02-24T09:52:18.487Z,11.55
2024-02-24T09:54:50.959Z,10.20
2024-02-24T09:57:27.421Z,11.38
2024-02-24T10:00:01.493Z,8.10
2024-02-24T10:02:36.177Z,10.88
2024-02-24T10:05:09.955Z,10.40
2024-02-24T10:07:43.430Z,10.25
2024-02-24T10:10:18.164Z,10.72
2024-02-24T10:13:04.038Z,10.28
2024-02-24T10:15:38.274Z,10.75
2024-02-24T10:20:42.752Z,10.50
2024-02-24T10:23:15.524Z,9.70
2024-02-24T10:25:49.757Z,11.68
2024-02-24T10:28:22.433Z,11.75
2024-02-24T10:30:56.205Z,7.60
2024-02-24T10:33:33.313Z,11.65
2024-02-24T10:36:06.854Z,10.68
2024-02-24T10:38:48.083Z,10.20
2024-02-24T10:41:18.842Z,10.40
2024-02-24T10:44:01.754Z,7.78
2024-02-24T10:46:29.260Z,9.98
2024-02-24T10:49:04.881Z,10.40
2024-02-24T10:54:16.601Z,10.35
2024-02-24T10:56:52.418Z,8.85
2024-02-24T10:59:30.217Z,9.83
2024-02-24T11:02:05.438Z,10.28
2024-02-24T11:04:44.040Z,8.58
2024-02-24T11:07:22.181Z,8.13
2024-02-24T11:09:56.739Z,10.03
2024-02-24T11:12:32.441Z,10.00
2024-02-24T11:15:07.246Z,10.72
2024-02-24T11:17:53.457Z,9.85
2024-02-24T11:20:45.180Z,8.63
2024-02-24T11:23:26.130Z,10.60
2024-02-24T11:26:21.495Z,9.28
2024-02-24T11:29:03.842Z,10.55
2024-02-24T11:31:38.536Z,9.35
2024-02-24T11:34:12.857Z,9.43
2024-02-24T11:39:20.049Z,11.25
2024-02-24T11:41:57.011Z,7.95
2024-02-24T11:44:29.647Z,9.40
2024-02-24T11:47:04.168Z,10.80
2024-02-24T11:49:40.274Z,9.43
2024-02-24T11:52:12.714Z,10.45
2024-02-24T11:54:51.357Z,11.93
2024-02-24T11:57:25.204Z,11.60
2024-02-24T11:59:57.885Z,10.20
2024-02-24T12:02:30.379Z,10.45
2024-02-24T12:05:18.035Z,10.25
2024-02-24T12:07:51.065Z,10.70
2024-02-24T12:10:25.334Z,10.53
2024-02-24T12:12:57.943Z,12.40
2024-02-24T12:15:30.870Z,10.68
2024-02-24T12:18:04.091Z,9.58
2024-02-24T12:20:50.747Z,10.28
2024-02-24T12:23:25.314Z,10.63
2024-02-24T12:25:58.782Z,10.65
2024-02-24T12:28:32.523Z,11.70
2024-02-24T12:31:07.249Z,10.95
2024-02-24T12:33:44.250Z,10.58
2024-02-24T12:36:18.304Z,10.43
2024-02-24T12:38:52.638Z,8.15
2024-02-24T12:41:28.693Z,11.50
2024-02-24T12:44:04.354Z,8.20
2024-02-24T12:46:37.995Z,10.53
2024-02-24T12:49:10.900Z,10.08
2024-02-24T12:51:45.657Z,9.98
2024-02-24T12:56:51.197Z,9.88
2024-02-24T12:59:24.930Z,11.38
2024-02-24T13:02:00.221Z,10.40
2024-02-24T13:04:33.308Z,11.45
2024-02-24T13:07:06.282Z,10.35
2024-02-24T13:09:38.943Z,10.10
2024-02-24T13:12:11.984Z,9.58
2024-02-24T13:14:44.611Z,10.63
2024-02-24T13:17:18.409Z,10.35
2024-02-24T13:19:53.080Z,10.48
2024-02-24T13:22:26.168Z,10.28
2024-02-24T13:24:58.591Z,9.58
2024-02-24T13:27:31.214Z,10.63
2024-02-24T13:30:04.938Z,9.60
2024-02-24T13:32:38.138Z,7.73
2024-02-24T13:35:11.671Z,9.08
2024-02-24T13:37:44.255Z,9.95
2024-02-24T13:40:17.573Z,8.93
2024-02-24T13:42:50.776Z,8.55
2024-02-24T13:45:23.749Z,9.15
2024-02-24T13:47:57.694Z,8.38
2024-02-24T13:50:31.074Z,10.10
2024-02-24T13:53:04.905Z,10.15
2024-02-24T13:55:38.043Z,9.28
2024-02-24T13:58:11.081Z,10.13
2024-02-24T14:00:44.888Z,7.83
2024-02-24T14:03:17.739Z,10.13
2024-02-24T14:05:50.553Z,9.25
2024-02-24T14:08:23.306Z,9.08
2024-02-24T14:10:56.451Z,11.30
2024-02-24T14:13:31.887Z,9.58
2024-02-24T14:16:05.947Z,9.65
2024-02-24T14:18:39.975Z,10.10
2024-02-24T14:21:13.726Z,10.18
2024-02-24T14:26:19.118Z,9.30
2024-02-24T14:29:00.416Z,8.68
2024-02-24T14:31:28.270Z,9.78
2024-02-24T14:34:02.016Z,9.25
2024-02-24T14:36:35.325Z,9.00
2024-02-24T14:39:09.366Z,10.10
2024-02-24T14:41:43.185Z,8.05
2024-02-24T14:44:17.750Z,10.60
2024-02-24T14:46:58.543Z,10.15
2024-02-24T14:49:32.033Z,8.73
2024-02-24T14:52:06.871Z,10.25
2024-02-24T14:54:42.377Z,10.15
2024-02-24T14:57:13.844Z,10.05
2024-02-24T14:59:46.856Z,9.35
2024-02-24T15:02:29.887Z,9.00
2024-02-24T15:04:54.358Z,8.95
2024-02-24T15:07:27.260Z,8.58
2024-02-24T15:10:02.789Z,6.28
2024-02-24T15:12:35.995Z,8.48
2024-02-24T15:15:10.287Z,8.88
2024-02-24T15:17:42.839Z,9.23
2024-02-24T15:20:16.361Z,9.63
2024-02-24T15:22:49.816Z,9.25
2024-02-24T15:25:22.644Z,9.78
2024-02-24T15:27:56.841Z,9.93
2024-02-24T15:30:29.151Z,8.03
2024-02-24T15:33:04.607Z,9.73
2024-02-24T15:35:37.354Z,9.48
2024-02-24T15:38:10.455Z,8.28
2024-02-24T15:43:34.252Z,9.25
2024-02-24T15:46:11.419Z,10.13
2024-02-24T15:48:45.047Z,9.33
2024-02-24T15:51:18.709Z,9.98
2024-02-24T15:53:51.610Z,10.38
2024-02-24T15:56:25.116Z,10.38
2024-02-24T15:58:58.384Z,9.33
2024-02-24T16:01:31.304Z,7.47
2024-02-24T16:04:03.935Z,9.73
2024-02-24T16:06:36.294Z,9.70
2024-02-24T16:09:10.939Z,9.75
2024-02-24T16:11:44.155Z,10.40
2024-02-24T16:14:16.738Z,9.43
2024-02-24T16:16:48.981Z,7.42
2024-02-24T16:19:21.521Z,10.45
2024-02-24T16:21:54.097Z,10.08
2024-02-24T16:24:29.382Z,10.80
2024-02-24T16:27:01.680Z,10.18
2024-02-24T16:29:34.225Z,10.45
2024-02-24T16:32:09.687Z,9.55
2024-02-24T16:34:41.836Z,10.32
2024-02-24T16:37:14.146Z,8.33
2024-02-24T16:39:47.096Z,9.80
2024-02-24T16:42:20.145Z,10.35
2024-02-24T16:44:53.501Z,7.70
2024-02-24T16:47:27.882Z,7.67
2024-02-24T16:50:02.464Z,10.08
2024-02-24T16:52:35.453Z,10.85
2024-02-24T16:55:11.382Z,8.95
2024-02-24T16:57:44.107Z,9.35
2024-02-24T17:00:18.646Z,9.70
2024-02-24T17:02:51.851Z,8.68
2024-02-24T17:05:25.652Z,7.35
2024-02-24T17:08:00.122Z,9.13
2024-02-24T17:10:34.664Z,9.35
2024-02-24T17:13:11.881Z,9.35
2024-02-24T17:15:44.837Z,9.55
2024-02-24T17:18:23.909Z,9.05
2024-02-24T17:20:53.963Z,10.35
2024-02-24T17:23:27.004Z,9.20
2024-02-24T17:26:00.187Z,8.68
2024-02-24T17:28:53.285Z,9.25
2024-02-24T17:31:25.762Z,8.20
2024-02-24T17:33:58.043Z,9.85
2024-02-24T17:36:32.398Z,9.65
2024-02-24T17:39:05.235Z,9.40
2024-02-24T17:41:38.167Z,9.75
2024-02-24T17:44:12.394Z,10.33
2024-02-24T17:46:45.241Z,11.08
2024-02-24T17:49:18.530Z,8.27
2024-02-24T17:51:51.138Z,8.25
2024-02-24T17:54:24.855Z,8.95
2024-02-24T17:56:57.990Z,10.00
2024-02-24T17:59:31.015Z,9.00
2024-02-24T18:02:04.933Z,7.17
2024-02-24T18:04:40.169Z,8.98
2024-02-24T18:07:13.469Z,8.50
2024-02-24T18:09:47.879Z,8.43
2024-02-24T18:15:10.805Z,8.63
2024-02-24T18:17:43.916Z,8.65
2024-02-24T18:20:17.202Z,7.90
2024-02-24T18:22:49.475Z,8.28
2024-02-24T18:25:21.866Z,8.55
2024-02-24T18:27:54.177Z,8.90
2024-02-24T18:30:26.738Z,8.98
2024-02-24T18:32:59.320Z,7.22
2024-02-24T18:35:31.488Z,8.48
2024-02-24T18:38:04.056Z,9.20
2024-02-24T18:40:36.647Z,8.80
2024-02-24T18:43:09.397Z,4.25
2024-02-24T18:45:44.469Z,7.22
2024-02-24T18:48:17.622Z,8.50
2024-02-24T18:50:49.970Z,8.53
2024-02-24T18:53:22.656Z,8.18
2024-02-24T18:55:55.563Z,6.60
2024-02-24T18:58:31.841Z,8.10
2024-02-24T19:01:04.859Z,7.30
2024-02-24T19:03:38.761Z,8.10
2024-02-24T19:06:12.768Z,5.70
2024-02-24T19:08:46.444Z,7.40
2024-02-24T19:13:51.511Z,4.92
2024-02-24T19:16:23.952Z,7.55
2024-02-24T19:18:56.766Z,6.83
2024-02-24T19:21:29.724Z,7.58
2024-02-24T19:24:02.096Z,7.00
2024-02-24T19:26:35.219Z,6.55
2024-02-24T19:29:15.535Z,7.00
2024-02-24T19:31:48.034Z,6.65
2024-02-24T19:34:21.097Z,6.47
2024-02-24T19:36:53.590Z,7.55
2024-02-24T19:39:26.492Z,6.47
2024-02-24T19:42:00.076Z,6.60
2024-02-24T19:44:32.915Z,5.03
2024-02-24T19:47:07.210Z,6.47
2024-02-24T19:52:11.089Z,6.50
2024-02-24T19:54:48.206Z,6.10
2024-02-24T19:57:21.906Z,5.72
2024-02-24T19:59:55.039Z,4.72
2024-02-24T20:02:28.549Z,5.65
2024-02-24T20:05:00.203Z,5.60
2024-02-24T20:07:32.337Z,5.60
2024-02-24T20:10:04.179Z,6.17
2024-02-24T20:12:36.328Z,5.70
2024-02-24T20:15:08.441Z,6.12
2024-02-24T20:17:40.261Z,5.97
2024-02-24T20:20:12.772Z,4.92
2024-02-24T20:22:44.224Z,4.85
2024-02-24T20:25:16.263Z,5.03
2024-02-24T20:27:47.945Z,4.55
2024-02-24T20:30:22.748Z,3.77
2024-02-24T20:32:54.607Z,4.90
2024-02-24T20:35:27.935Z,4.70
2024-02-24T20:37:59.778Z,4.90
2024-02-24T20:40:31.437Z,3.98
2024-02-24T20:43:03.113Z,4.33
2024-02-24T20:45:34.669Z,3.62
2024-02-24T20:48:06.873Z,3.58
2024-02-24T20:50:39.053Z,3.22
2024-02-24T20:53:11.018Z,3.20
2024-02-24T20:55:42.800Z,4.40
2024-02-24T20:58:14.706Z,3.17
2024-02-24T21:00:47.134Z,3.62
2024-02-24T21:03:19.399Z,2.67
2024-02-24T21:05:50.980Z,3.25
2024-02-24T21:08:22.825Z,3.50
2024-02-24T21:10:54.478Z,3.55
2024-02-24T21:13:26.181Z,3.02
2024-02-24T21:15:57.974Z,3.33
2024-02-24T21:18:30.175Z,3.60
2024-02-24T21:21:02.022Z,2.77
2024-02-24T21:23:35.028Z,3.12
2024-02-24T21:26:10.353Z,2.77
2024-02-24T21:28:42.000Z,3.30
2024-02-24T21:31:13.523Z,2.52
2024-02-24T21:33:45.881Z,3.02
2024-02-24T21:36:19.090Z,3.00
2024-02-24T21:38:51.253Z,2.90
2024-02-24T21:41:23.055Z,2.70
2024-02-24T21:43:55.087Z,2.77
2024-02-24T21:46:27.688Z,2.62
2024-02-24T21:48:59.371Z,2.77
2024-02-24T21:51:30.871Z,2.77
2024-02-24T21:54:04.400Z,3.05
2024-02-24T21:56:36.232Z,2.80
2024-02-24T21:59:07.950Z,2.08
2024-02-24T22:01:39.410Z,2.77
2024-02-24T22:04:13.357Z,2.42
2024-02-24T22:06:46.195Z,2.22
2024-02-24T22:09:19.032Z,2.60
2024-02-24T22:11:51.917Z,2.30
2024-02-24T22:14:24.536Z,2.40
2024-02-24T22:16:57.319Z,2.37
2024-02-24T22:19:31.480Z,2.30
2024-02-24T22:22:03.798Z,3.08
2024-02-24T22:24:37.027Z,2.50
2024-02-24T22:27:09.816Z,3.20
2024-02-24T22:29:43.485Z,2.60
2024-02-24T22:32:16.254Z,2.60
2024-02-24T22:34:48.759Z,2.30
2024-02-24T22:37:21.689Z,2.92
2024-02-24T22:39:54.273Z,3.02
2024-02-24T22:42:27.470Z,2.20
2024-02-24T22:45:00.265Z,2.50
2024-02-24T22:47:35.067Z,2.90
2024-02-24T22:50:08.289Z,2.52
2024-02-24T22:52:40.628Z,2.62
2024-02-24T22:55:13.874Z,3.00
2024-02-24T22:57:47.630Z,2.10
2024-02-24T23:00:22.275Z,2.85
2024-02-24T23:02:54.892Z,2.70
2024-02-24T23:05:27.940Z,2.98
2024-02-24T23:08:00.143Z,3.27
2024-02-24T23:10:32.801Z,2.50
2024-02-24T23:13:05.176Z,2.67
2024-02-24T23:15:37.656Z,3.17
2024-02-24T23:18:10.219Z,3.00
2024-02-24T23:20:42.846Z,3.20
2024-02-24T23:23:17.253Z,3.00
2024-02-24T23:25:50.318Z,2.90
2024-02-24T23:28:23.107Z,2.98
2024-02-24T23:30:56.228Z,2.83
2024-02-24T23:33:28.863Z,3.75
2024-02-24T23:36:01.549Z,2.65
2024-02-24T23:38:34.133Z,2.50
2024-02-24T23:41:07.307Z,3.42
2024-02-24T23:43:40.646Z,3.52
2024-02-24T23:46:14.526Z,3.30
2024-02-24T23:48:48.127Z,2.80
2024-02-24T23:51:20.373Z,2.87
2024-02-24T23:53:53.115Z,2.90
2024-02-24T23:56:26.267Z,3.42
2024-02-24T23:58:59.061Z,2.75
